Test XHTML 1.0 Strict Page for WU-History Testing
Histórico de la Estación METEOFIGUERES
 
Diario Datos del Julio 21, 2018 Unidades:  Metrico    Inglés   Ambos
« Prev Dia
Sig Dia »
Diario Semanal Mensual Anual Rango
  Actual: Max: Min: Media:
Temp: -2.5 °C -17.8 °C -6.3 °C -5.1 °C
Rocío: -9.6 °C -17.8 °C -10.7 °C -9.7 °C
Humedad: 46 % Humidity % 46 % 59 %
Vel. viento: 12.9 km/h 0 km/h 0 km/h 21.7 km/h
Racha: 46.7 km/h 0 km/h - -
Viento:NW - - NW
Presión: 34293.4 hPa 0 hPa 34249.4 hPa -
Lluvia: 0 mm      
Historical Graphs
 
 
Busqueda de Julio 21, 2018
Hora Temp Rocío Presión Viento Vel. viento Racha Humedad Ratio lluvia (/hora) Radiación
-17.8 °C -17.8 °C 0 hPa Calm     Humidity % 0 mm SolarRadiationWatts/m^2 W/m2
00:00 -4.3 °C -8.2 °C 34262.9 hPa North 33.6 km/h 54.4 km/h 65 % 0 mm 0.00 W/m2
00:05 -4.4 °C -8.2 °C 34273.1 hPa NNW 25.9 km/h 46.7 km/h 66 % 0 mm 0.00 W/m2
00:10 -4.4 °C -8.3 °C 34279.9 hPa NNW 25.9 km/h 46.7 km/h 65 % 0 mm 0.00 W/m2
00:15 -4.4 °C -8.3 °C 34276.5 hPa NNW 33.6 km/h 54.4 km/h 65 % 0 mm 0.00 W/m2
00:20 -4.4 °C -8.3 °C 34262.9 hPa North 25.9 km/h 51.8 km/h 65 % 0 mm 0.00 W/m2
00:25 -4.5 °C -8.4 °C 34252.8 hPa North 28.5 km/h 46.7 km/h 65 % 0 mm 0.00 W/m2
00:30 -4.5 °C -8.5 °C 34256.2 hPa North 25.9 km/h 44.1 km/h 64 % 0 mm 0.00 W/m2
00:35 -4.5 °C -8.8 °C 34262.9 hPa NNW 36.2 km/h 51.8 km/h 62 % 0 mm 0.00 W/m2
00:40 -4.5 °C -8.8 °C 34266.3 hPa NNW 28.5 km/h 51.8 km/h 62 % 0 mm 0.00 W/m2
00:45 -4.5 °C -8.8 °C 34262.9 hPa North 31.1 km/h 59.5 km/h 62 % 0 mm 0.00 W/m2
00:50 -4.6 °C -8.8 °C 34266.3 hPa NNW 28.5 km/h 46.7 km/h 62 % 0 mm 0.00 W/m2
00:55 -4.6 °C -8.8 °C 34266.3 hPa North 28.5 km/h 49.2 km/h 63 % 0 mm 0.00 W/m2
01:00 -4.7 °C -8.8 °C 34266.3 hPa North 28.5 km/h 44.1 km/h 63 % 0 mm 0.00 W/m2
01:10 -4.8 °C -8.8 °C 34269.7 hPa NNW 31.1 km/h 51.8 km/h 64 % 0 mm 0.00 W/m2
01:15 -4.8 °C -8.8 °C 34269.7 hPa NNW 28.5 km/h 46.7 km/h 64 % 0 mm 0.00 W/m2
01:20 -4.8 °C -8.8 °C 34256.2 hPa North 20.8 km/h 38.8 km/h 64 % 0 mm 0.00 W/m2
01:25 -4.9 °C -8.9 °C 34249.4 hPa NNE 20.8 km/h 41.4 km/h 64 % 0 mm 0.00 W/m2
01:30 -4.9 °C -8.9 °C 34256.2 hPa North 18.2 km/h 38.8 km/h 64 % 0 mm 0.00 W/m2
01:35 -4.8 °C -8.8 °C 34269.7 hPa NNW 7.7 km/h 25.9 km/h 64 % 0 mm 0.00 W/m2
01:40 -4.8 °C -8.8 °C 34276.5 hPa NNW 10.3 km/h 28.5 km/h 64 % 0 mm 0.00 W/m2
01:45 -4.8 °C -8.8 °C 34276.5 hPa NW 12.9 km/h 31.1 km/h 64 % 0 mm 0.00 W/m2
01:50 -4.9 °C -8.9 °C 34276.5 hPa North 10.3 km/h 33.6 km/h 64 % 0 mm 0.00 W/m2
01:55 -4.9 °C -8.9 °C 34279.9 hPa NNW 7.7 km/h 31.1 km/h 64 % 0 mm 0.00 W/m2
02:00 -4.9 °C -8.9 °C 34276.5 hPa NNW 7.7 km/h 36.2 km/h 64 % 0 mm 0.00 W/m2
02:05 -4.9 °C -8.8 °C 34273.1 hPa North 18.2 km/h 38.8 km/h 65 % 0 mm 0.00 W/m2
02:10 -4.9 °C -8.8 °C 34279.9 hPa NNW 12.9 km/h 36.2 km/h 65 % 0 mm 0.00 W/m2
02:15 -4.9 °C -8.9 °C 34283.3 hPa NNW 23.3 km/h 38.8 km/h 64 % 0 mm 0.00 W/m2
02:20 -4.9 °C -8.9 °C 34283.3 hPa NNW 12.9 km/h 38.8 km/h 64 % 0 mm 0.00 W/m2
02:25 -4.9 °C -8.9 °C 34276.5 hPa NW 10.3 km/h 28.5 km/h 64 % 0 mm 0.00 W/m2
02:30 -4.9 °C -8.9 °C 34279.9 hPa NW 5.1 km/h 20.8 km/h 64 % 0 mm 0.00 W/m2
02:35 -4.9 °C -8.9 °C 34276.5 hPa NNW 10.3 km/h 25.9 km/h 64 % 0 mm 0.00 W/m2
02:40 -4.9 °C -8.9 °C 34273.1 hPa Calm   5.1 km/h 64 % 0 mm 0.00 W/m2
02:45 -5 °C -9 °C 34269.7 hPa North 7.7 km/h 28.5 km/h 64 % 0 mm 0.00 W/m2
02:50 -5 °C -9 °C 34269.7 hPa NNW 15.6 km/h 33.6 km/h 64 % 0 mm 0.00 W/m2
02:55 -5.1 °C -9.1 °C 34266.3 hPa NNW 10.3 km/h 31.1 km/h 64 % 0 mm 0.00 W/m2
03:00 -5.1 °C -9.1 °C 34276.5 hPa NNW 2.6 km/h 12.9 km/h 64 % 0 mm 0.00 W/m2
03:10 -5.1 °C -9.2 °C 34273.1 hPa North 5.1 km/h 23.3 km/h 63 % 0 mm 0.00 W/m2
03:15 -5.1 °C -9.3 °C 34276.5 hPa North 23.3 km/h 46.7 km/h 62 % 0 mm 0.00 W/m2
03:20 -5.1 °C -9.3 °C 34276.5 hPa NNW 15.6 km/h 46.7 km/h 62 % 0 mm 0.00 W/m2
03:25 -5.1 °C -9.4 °C 34269.7 hPa NNE 25.9 km/h 41.4 km/h 62 % 0 mm 0.00 W/m2
03:30 -5.2 °C -9.3 °C 34269.7 hPa North 28.5 km/h 51.8 km/h 63 % 0 mm 0.00 W/m2
03:35 -5.2 °C -9.3 °C 34269.7 hPa NNW 28.5 km/h 54.4 km/h 63 % 0 mm 0.00 W/m2
03:40 -5.3 °C -9.4 °C 34273.1 hPa North 28.5 km/h 49.2 km/h 63 % 0 mm 0.00 W/m2
03:45 -5.3 °C -9.3 °C 34269.7 hPa North 25.9 km/h 44.1 km/h 64 % 0 mm 0.00 W/m2
03:50 -5.4 °C -9.5 °C 34269.7 hPa NNW 12.9 km/h 31.1 km/h 63 % 0 mm 0.00 W/m2
03:55 -5.5 °C -9.5 °C 34266.3 hPa North 15.6 km/h 38.8 km/h 64 % 0 mm 0.00 W/m2
04:00 -5.6 °C -9.4 °C 34269.7 hPa NNW 18.2 km/h 46.7 km/h 65 % 0 mm 0.00 W/m2
04:05 -5.7 °C -9.5 °C 34266.3 hPa NNW 15.6 km/h 38.8 km/h 65 % 0 mm 0.00 W/m2
04:10 -5.7 °C -9.6 °C 34266.3 hPa NNW 23.3 km/h 44.1 km/h 65 % 0 mm 0.00 W/m2
04:15 -5.8 °C -9.4 °C 34262.9 hPa NNW 20.8 km/h 38.8 km/h 66 % 0 mm 0.00 W/m2
04:20 -5.8 °C -9.4 °C 34259.5 hPa NNW 15.6 km/h 33.6 km/h 66 % 0 mm 0.00 W/m2
04:25 -5.9 °C -9.6 °C 34262.9 hPa NNW 15.6 km/h 33.6 km/h 66 % 0 mm 0.00 W/m2
04:30 -5.9 °C -9.7 °C 34262.9 hPa NNW 18.2 km/h 41.4 km/h 65 % 0 mm 0.00 W/m2
04:35 -5.9 °C -9.7 °C 34259.5 hPa NNW 20.8 km/h 44.1 km/h 65 % 0 mm 0.00 W/m2
04:40 -5.9 °C -9.8 °C 34262.9 hPa NNW 25.9 km/h 38.8 km/h 65 % 0 mm 0.00 W/m2
04:45 -5.9 °C -9.8 °C 34262.9 hPa NNW 23.3 km/h 41.4 km/h 65 % 0 mm 0.00 W/m2
04:50 -5.9 °C -9.8 °C 34262.9 hPa NNW 20.8 km/h 38.8 km/h 65 % 0 mm 0.00 W/m2
04:55 -6 °C -9.8 °C 34259.5 hPa NW 12.9 km/h 33.6 km/h 65 % 0 mm 0.00 W/m2
05:00 -6 °C -9.8 °C 34259.5 hPa NW 7.7 km/h 28.5 km/h 65 % 0 mm 0.00 W/m2
05:10 -6 °C -9.8 °C 34256.2 hPa NNW 10.3 km/h 31.1 km/h 65 % 0 mm 0.00 W/m2
05:15 -6 °C -9.8 °C 34259.5 hPa NNW 7.7 km/h 28.5 km/h 65 % 0 mm 0.00 W/m2
05:20 -6.1 °C -10 °C 34256.2 hPa NNW 5.1 km/h 23.3 km/h 64 % 0 mm 0.00 W/m2
05:25 -6 °C -9.9 °C 34252.8 hPa NNW 12.9 km/h 36.2 km/h 64 % 0 mm 0.00 W/m2
05:30 -6 °C -9.9 °C 34252.8 hPa NNW 10.3 km/h 46.7 km/h 64 % 0 mm 0.00 W/m2
05:35 -6.1 °C -10 °C 34249.4 hPa NNW 7.7 km/h 25.9 km/h 64 % 0 mm 0.00 W/m2
05:40 -6.1 °C -10 °C 34252.8 hPa NNW 10.3 km/h 28.5 km/h 64 % 0 mm 0.00 W/m2
05:45 -6.1 °C -10 °C 34249.4 hPa North 12.9 km/h 36.2 km/h 64 % 0 mm 0.00 W/m2
05:50 -6.1 °C -9.9 °C 34249.4 hPa NNW 10.3 km/h 28.5 km/h 65 % 0 mm 0.00 W/m2
05:55 -6.2 °C -9.9 °C 34249.4 hPa NNW 12.9 km/h 33.6 km/h 65 % 0 mm 0.00 W/m2
06:00 -6.2 °C -10.1 °C 34249.4 hPa NNW 28.5 km/h 46.7 km/h 64 % 0 mm 0.00 W/m2
06:05 -6.2 °C -10.1 °C 34252.8 hPa NNW 23.3 km/h 36.2 km/h 64 % 0 mm 0.00 W/m2
06:10 -6.2 °C -10 °C 34249.4 hPa NNW 20.8 km/h 38.8 km/h 65 % 0 mm 0.00 W/m2
06:15 -6.2 °C -10 °C 34252.8 hPa NNW 18.2 km/h 41.4 km/h 65 % 0 mm 0.00 W/m2
06:20 -6.3 °C -10.1 °C 34249.4 hPa NNW 25.9 km/h 38.8 km/h 65 % 0 mm 0.00 W/m2
06:25 -6.3 °C -10.2 °C 34252.8 hPa NNW 18.2 km/h 44.1 km/h 64 % 0 mm 0.00 W/m2
06:30 -6.3 °C -10.2 °C 34252.8 hPa NW 23.3 km/h 41.4 km/h 64 % 0 mm 0.00 W/m2
06:35 -6.3 °C -10.2 °C 34249.4 hPa NNW 25.9 km/h 51.8 km/h 64 % 0 mm 0.00 W/m2
06:40 -6.3 °C -10.2 °C 34252.8 hPa NW 23.3 km/h 41.4 km/h 64 % 0 mm 0.00 W/m2
06:45 -6.3 °C -10.3 °C 34252.8 hPa NW 25.9 km/h 44.1 km/h 63 % 0 mm 0.00 W/m2
06:50 -6.2 °C -10.3 °C 34252.8 hPa NW 20.8 km/h 41.4 km/h 63 % 0 mm 0.00 W/m2
06:55 -6.2 °C -10.4 °C 34256.2 hPa NW 20.8 km/h 44.1 km/h 62 % 0 mm 0.00 W/m2
07:00 -6.2 °C -10.4 °C 34256.2 hPa NW 15.6 km/h 38.8 km/h 62 % 0 mm 0.00 W/m2
07:10 -6.2 °C -10.4 °C 34259.5 hPa NW 20.8 km/h 41.4 km/h 62 % 0 mm 0.00 W/m2
07:15 -6.2 °C -10.4 °C 34262.9 hPa NW 28.5 km/h 51.8 km/h 62 % 0 mm 0.00 W/m2
07:20 -6.1 °C -10.4 °C 34262.9 hPa NW 23.3 km/h 49.2 km/h 61 % 0 mm 0.00 W/m2
07:25 -6 °C -10.5 °C 34262.9 hPa NW 33.6 km/h 59.5 km/h 60 % 0 mm 0.00 W/m2
07:30 -5.9 °C -10.6 °C 34262.9 hPa NW 23.3 km/h 51.8 km/h 59 % 0 mm 0.00 W/m2
07:35 -5.9 °C -10.7 °C 34262.9 hPa NNW 28.5 km/h 41.4 km/h 58 % 0 mm 0.00 W/m2
07:40 -5.8 °C -10.6 °C 34259.5 hPa NW 31.1 km/h 54.4 km/h 58 % 0 mm 0.00 W/m2
07:45 -5.7 °C -10.7 °C 34262.9 hPa NW 36.2 km/h 57 km/h 57 % 0 mm 0.00 W/m2
07:50 -5.6 °C -10.6 °C 34262.9 hPa NNW 25.9 km/h 38.8 km/h 57 % 0 mm 0.00 W/m2
07:55 -5.6 °C -10.7 °C 34266.3 hPa NNW 31.1 km/h 54.4 km/h 56 % 0 mm 0.00 W/m2
08:00 -5.4 °C -10.6 °C 34266.3 hPa NNW 31.1 km/h 49.2 km/h 56 % 0 mm 0.00 W/m2
08:05 -5.4 °C -10.7 °C 34269.7 hPa NW 25.9 km/h 44.1 km/h 55 % 0 mm 0.00 W/m2
08:10 -5.3 °C -10.6 °C 34269.7 hPa NW 33.6 km/h 59.5 km/h 55 % 0 mm 0.00 W/m2
08:15 -5.2 °C -10.5 °C 34266.3 hPa NW 28.5 km/h 44.1 km/h 55 % 0 mm 0.00 W/m2
08:20 -5.1 °C -10.4 °C 34266.3 hPa NNW 25.9 km/h 49.2 km/h 55 % 0 mm 0.00 W/m2
08:25 -5.1 °C -10.5 °C 34266.3 hPa NNW 31.1 km/h 46.7 km/h 54 % 0 mm 0.00 W/m2
08:30 -4.9 °C -10.6 °C 34269.7 hPa NW 33.6 km/h 69.8 km/h 53 % 0 mm 0.00 W/m2
08:35 -4.9 °C -10.3 °C 34269.7 hPa NNW 20.8 km/h 46.7 km/h 54 % 0 mm 0.00 W/m2
08:40 -4.8 °C -10.4 °C 34269.7 hPa NNW 31.1 km/h 57 km/h 53 % 0 mm 0.00 W/m2
08:45 -4.7 °C -10.3 °C 34269.7 hPa NW 28.5 km/h 44.1 km/h 53 % 0 mm 0.00 W/m2
08:50 -4.6 °C -10.4 °C 34269.7 hPa NNW 31.1 km/h 51.8 km/h 52 % 0 mm 0.00 W/m2
08:55 -4.6 °C -10.5 °C 34273.1 hPa NNW 33.6 km/h 51.8 km/h 51 % 0 mm 0.00 W/m2
09:00 -4.5 °C -10.3 °C 34273.1 hPa NNW 31.1 km/h 51.8 km/h 52 % 0 mm 0.00 W/m2
09:10 -4.3 °C -10.3 °C 34273.1 hPa NNW 33.6 km/h 54.4 km/h 51 % 0 mm 0.00 W/m2
09:15 -4.2 °C -10.3 °C 34276.5 hPa NNW 28.5 km/h 49.2 km/h 50 % 0 mm 0.00 W/m2
09:20 -4.1 °C -10.2 °C 34273.1 hPa NW 33.6 km/h 49.2 km/h 50 % 0 mm 0.00 W/m2
09:25 -3.9 °C -10.1 °C 34276.5 hPa NNW 25.9 km/h 44.1 km/h 50 % 0 mm 0.00 W/m2
09:30 -3.8 °C -9.9 °C 34276.5 hPa NNW 23.3 km/h 44.1 km/h 50 % 0 mm 0.00 W/m2
09:35 -3.7 °C -10.1 °C 34279.9 hPa NNW 25.9 km/h 49.2 km/h 49 % 0 mm 0.00 W/m2
09:40 -3.6 °C -10.2 °C 34276.5 hPa NNW 31.1 km/h 51.8 km/h 48 % 0 mm 0.00 W/m2
09:45 -3.6 °C -9.9 °C 34279.9 hPa NNW 23.3 km/h 41.4 km/h 49 % 0 mm 0.00 W/m2
09:50 -3.5 °C -9.9 °C 34276.5 hPa NNW 20.8 km/h 36.2 km/h 49 % 0 mm 0.00 W/m2
09:55 -3.4 °C -9.9 °C 34283.3 hPa NNW 23.3 km/h 38.8 km/h 48 % 0 mm 0.00 W/m2
10:00 -3.3 °C -9.9 °C 34283.3 hPa North 18.2 km/h 44.1 km/h 48 % 0 mm 0.00 W/m2
10:05 -3.3 °C -9.9 °C 34283.3 hPa North 25.9 km/h 49.2 km/h 48 % 0 mm 0.00 W/m2
10:10 -3.2 °C -9.8 °C 34283.3 hPa NNW 25.9 km/h 44.1 km/h 48 % 0 mm 0.00 W/m2
10:15 -3.1 °C -9.9 °C 34283.3 hPa NW 31.1 km/h 49.2 km/h 47 % 0 mm 0.00 W/m2
10:20 -3.1 °C -9.7 °C 34283.3 hPa NW 23.3 km/h 44.1 km/h 48 % 0 mm 0.00 W/m2
10:25 -3 °C -9.8 °C 34286.6 hPa North 25.9 km/h 41.4 km/h 47 % 0 mm 0.00 W/m2
10:30 -2.9 °C -9.9 °C 34286.6 hPa NNW 28.5 km/h 44.1 km/h 46 % 0 mm 0.00 W/m2
10:35 -2.9 °C -9.9 °C 34286.6 hPa NNW 31.1 km/h 49.2 km/h 46 % 0 mm 0.00 W/m2
10:40 -2.9 °C -9.9 °C 34286.6 hPa NNW 25.9 km/h 49.2 km/h 46 % 0 mm 0.00 W/m2
10:45 -2.8 °C -9.8 °C 34290 hPa NW 38.8 km/h 57 km/h 46 % 0 mm 0.00 W/m2
10:50 -2.7 °C -9.7 °C 34290 hPa NNW 18.2 km/h 49.2 km/h 46 % 0 mm 0.00 W/m2
10:55 -2.7 °C -9.5 °C 34290 hPa NNW 25.9 km/h 38.8 km/h 47 % 0 mm 0.00 W/m2
11:00 -2.5 °C -9.6 °C 34293.4 hPa NW 12.9 km/h 46.7 km/h 46 % 0 mm 0.00 W/m2
Meteofigueres
Agradecimientos a Weather Underground - 2.5 mb